createdAt,value
2019-06-10T00:00:32.953Z,81.00
2019-06-10T00:03:07.231Z,81.05
2019-06-10T00:05:43.312Z,81.13
2019-06-10T00:08:16.411Z,81.50
2019-06-10T00:10:51.132Z,81.47
2019-06-10T00:13:25.972Z,81.73
2019-06-10T00:16:01.285Z,82.01
2019-06-10T00:18:42.076Z,82.27
2019-06-10T00:21:11.185Z,82.53
2019-06-10T00:23:46.920Z,82.88
2019-06-10T00:26:21.612Z,83.18
2019-06-10T00:28:56.112Z,83.41
2019-06-10T00:31:31.256Z,83.55
2019-06-10T00:34:06.351Z,83.55
2019-06-10T00:36:41.702Z,83.88
2019-06-10T00:39:15.171Z,83.88
2019-06-10T00:41:48.245Z,84.14
2019-06-10T00:44:23.436Z,84.64
2019-06-10T00:47:04.821Z,84.75
2019-06-10T00:49:37.374Z,84.92
2019-06-10T00:52:11.698Z,85.08
2019-06-10T00:54:43.602Z,85.43
2019-06-10T00:57:20.902Z,85.44
2019-06-10T00:59:55.516Z,85.52
2019-06-10T01:02:28.691Z,85.96
2019-06-10T01:05:01.535Z,86.38
2019-06-10T01:07:37.561Z,86.70
2019-06-10T01:10:13.413Z,87.37
2019-06-10T01:12:47.425Z,87.88
2019-06-10T01:15:21.854Z,88.08
2019-06-10T01:17:55.622Z,88.11
2019-06-10T01:20:28.105Z,88.61
2019-06-10T01:23:02.436Z,88.50
2019-06-10T01:25:37.770Z,88.55
2019-06-10T01:28:16.779Z,88.73
2019-06-10T01:30:51.677Z,88.63
2019-06-10T01:33:26.789Z,88.75
2019-06-10T01:36:01.021Z,88.68
2019-06-10T01:38:36.101Z,88.63
2019-06-10T01:41:11.131Z,88.71
2019-06-10T01:43:44.520Z,88.78
2019-06-10T01:46:17.503Z,89.05
2019-06-10T01:48:55.118Z,88.90
2019-06-10T01:51:31.693Z,88.92
2019-06-10T01:54:04.302Z,88.95
2019-06-10T01:56:36.631Z,89.26
2019-06-10T01:59:12.160Z,89.59
2019-06-10T02:02:01.597Z,89.81
2019-06-10T02:04:35.437Z,89.84
2019-06-10T02:07:09.195Z,90.17
2019-06-10T02:09:44.066Z,90.23
2019-06-10T02:12:18.777Z,90.28
2019-06-10T02:14:54.172Z,90.30
2019-06-10T02:17:28.478Z,90.45
2019-06-10T02:20:03.099Z,90.36
2019-06-10T02:22:35.263Z,90.30
2019-06-10T02:25:08.054Z,90.36
2019-06-10T02:27:45.206Z,90.49
2019-06-10T02:30:29.783Z,90.57
2019-06-10T02:32:56.948Z,90.59
2019-06-10T02:35:40.204Z,90.36
2019-06-10T02:38:05.464Z,90.32
2019-06-10T02:40:38.772Z,90.23
2019-06-10T02:43:17.820Z,90.41
2019-06-10T02:45:49.366Z,90.62
2019-06-10T02:48:27.907Z,91.15
2019-06-10T02:51:08.769Z,91.15
2019-06-10T02:53:43.653Z,91.10
2019-06-10T02:56:19.984Z,91.31
2019-06-10T02:58:56.392Z,91.34
2019-06-10T03:01:34.291Z,91.36
2019-06-10T03:04:07.490Z,91.42
2019-06-10T03:06:44.692Z,91.36
2019-06-10T03:09:16.947Z,91.39
2019-06-10T03:11:53.344Z,91.26
2019-06-10T03:14:25.678Z,91.21
2019-06-10T03:17:03.151Z,91.18
2019-06-10T03:19:46.954Z,91.14
2019-06-10T03:22:13.362Z,91.06
2019-06-10T03:24:45.495Z,91.10
2019-06-10T03:27:23.529Z,90.87
2019-06-10T03:30:04.740Z,90.89
2019-06-10T03:32:40.659Z,90.91
2019-06-10T03:35:12.946Z,90.98
2019-06-10T03:37:44.491Z,90.82
2019-06-10T03:40:18.528Z,90.67
2019-06-10T03:42:52.019Z,90.42
2019-06-10T03:45:26.747Z,90.16
2019-06-10T03:47:59.752Z,90.20
2019-06-10T03:50:32.491Z,90.02
2019-06-10T03:53:05.854Z,89.73
2019-06-10T03:55:42.239Z,89.75
2019-06-10T03:58:17.482Z,89.80
2019-06-10T04:00:54.646Z,89.80
2019-06-10T04:03:29.385Z,89.52
2019-06-10T04:06:03.583Z,89.39
2019-06-10T04:08:39.906Z,89.33
2019-06-10T04:11:12.986Z,89.22
2019-06-10T04:13:46.621Z,89.17
2019-06-10T04:16:20.217Z,89.03
2019-06-10T04:18:53.824Z,88.83
2019-06-10T04:21:29.646Z,88.73
2019-06-10T04:24:02.533Z,88.66
2019-06-10T04:26:38.154Z,88.47
2019-06-10T04:29:12.894Z,88.28
2019-06-10T04:31:46.715Z,88.28
2019-06-10T04:34:20.461Z,88.56
2019-06-10T04:36:56.037Z,88.22
2019-06-10T04:39:29.278Z,87.70
2019-06-10T04:42:02.521Z,87.78
2019-06-10T04:44:35.478Z,87.74
2019-06-10T04:47:07.888Z,87.59
2019-06-10T04:49:42.830Z,87.47
2019-06-10T04:52:16.270Z,87.71
2019-06-10T04:54:52.741Z,87.16
2019-06-10T04:57:26.870Z,87.69
2019-06-10T05:00:04.140Z,87.95
2019-06-10T05:02:35.830Z,87.38
2019-06-10T05:05:07.895Z,87.60
2019-06-10T05:07:42.602Z,87.72
2019-06-10T05:10:16.216Z,87.93
2019-06-10T05:12:48.441Z,87.67
2019-06-10T05:15:26.262Z,87.61
2019-06-10T05:17:58.879Z,87.57
2019-06-10T05:20:46.796Z,86.75
2019-06-10T05:23:05.927Z,86.56
2019-06-10T05:25:42.648Z,86.44
2019-06-10T05:28:14.322Z,86.31
2019-06-10T05:30:48.549Z,86.25
2019-06-10T05:33:24.020Z,85.63
2019-06-10T05:35:58.755Z,84.03
2019-06-10T05:38:35.302Z,84.08
2019-06-10T05:41:08.945Z,83.32
2019-06-10T05:43:43.174Z,82.67
2019-06-10T05:46:17.238Z,82.61
2019-06-10T05:48:52.415Z,82.28
2019-06-10T05:51:26.421Z,82.25
2019-06-10T05:54:02.178Z,81.82
2019-06-10T05:56:36.742Z,81.49
2019-06-10T05:59:08.945Z,81.09
2019-06-10T06:01:43.130Z,81.28
2019-06-10T06:04:17.604Z,81.09
2019-06-10T06:06:53.245Z,80.67
2019-06-10T06:09:27.148Z,80.98
2019-06-10T06:12:02.478Z,80.04
2019-06-10T06:14:38.643Z,79.63
2019-06-10T06:17:16.649Z,79.52
2019-06-10T06:19:46.746Z,79.41
2019-06-10T06:22:22.093Z,79.15
2019-06-10T06:24:57.090Z,78.93
2019-06-10T06:27:31.377Z,78.21
2019-06-10T06:30:11.401Z,77.78
2019-06-10T06:32:43.658Z,76.56
2019-06-10T06:35:19.059Z,75.77
2019-06-10T06:37:54.095Z,76.11
2019-06-10T06:40:29.204Z,75.96
2019-06-10T06:43:03.220Z,74.83
2019-06-10T06:45:37.466Z,73.63
2019-06-10T06:48:12.191Z,73.63
2019-06-10T06:51:01.950Z,74.26
2019-06-10T06:53:33.333Z,74.01
2019-06-10T06:55:58.098Z,73.53
2019-06-10T06:58:33.582Z,72.75
2019-06-10T07:01:11.005Z,73.13
2019-06-10T07:03:45.442Z,73.39
2019-06-10T07:06:22.902Z,72.35
2019-06-10T07:09:04.605Z,71.81
2019-06-10T07:11:38.708Z,72.86
2019-06-10T07:14:13.882Z,73.09
2019-06-10T07:16:46.792Z,72.75
2019-06-10T07:19:22.671Z,73.04
2019-06-10T07:22:09.453Z,72.17
2019-06-10T07:24:37.890Z,72.25
2019-06-10T07:27:08.092Z,71.35
2019-06-10T07:29:46.926Z,71.17
2019-06-10T07:32:17.185Z,70.47
2019-06-10T07:34:52.489Z,70.77
2019-06-10T07:37:25.065Z,71.29
2019-06-10T07:39:57.058Z,70.52
2019-06-10T07:42:33.309Z,70.26
2019-06-10T07:45:06.794Z,69.25
2019-06-10T07:47:39.066Z,69.29
2019-06-10T07:50:12.157Z,69.01
2019-06-10T07:52:46.924Z,68.42
2019-06-10T07:55:22.195Z,68.34
2019-06-10T07:57:55.890Z,67.20
2019-06-10T08:00:30.170Z,67.27
2019-06-10T08:03:04.824Z,66.27
2019-06-10T08:05:37.736Z,66.28
2019-06-10T08:08:14.156Z,65.82
2019-06-10T08:10:52.938Z,66.28
2019-06-10T08:13:24.969Z,66.11
2019-06-10T08:15:58.506Z,66.17
2019-06-10T08:18:38.142Z,66.12
2019-06-10T08:21:08.074Z,65.56
2019-06-10T08:23:44.750Z,65.25
2019-06-10T08:26:16.854Z,64.54
2019-06-10T08:28:52.812Z,64.54
2019-06-10T08:31:26.751Z,63.83
2019-06-10T08:34:02.759Z,63.30
2019-06-10T08:36:33.848Z,62.35
2019-06-10T08:39:15.897Z,62.12
2019-06-10T08:41:49.419Z,62.67
2019-06-10T08:44:23.172Z,62.44
2019-06-10T08:46:57.489Z,62.07
2019-06-10T08:49:33.035Z,61.04
2019-06-10T08:52:07.859Z,60.61
2019-06-10T08:54:45.696Z,60.08
2019-06-10T08:57:15.179Z,59.53
2019-06-10T08:59:49.284Z,59.02
2019-06-10T09:02:23.914Z,59.71
2019-06-10T09:04:56.029Z,60.31
2019-06-10T09:07:29.156Z,59.38
2019-06-10T09:10:03.031Z,58.01
2019-06-10T09:12:36.779Z,57.47
2019-06-10T09:15:09.701Z,56.67
2019-06-10T09:17:46.731Z,56.30
2019-06-10T09:20:22.788Z,56.41
2019-06-10T09:23:13.742Z,55.61
2019-06-10T09:25:28.042Z,54.68
2019-06-10T09:28:03.473Z,55.43
2019-06-10T09:30:36.788Z,54.32
2019-06-10T09:33:12.980Z,54.60
2019-06-10T09:35:49.096Z,54.88
2019-06-10T09:38:22.311Z,53.55
2019-06-10T09:41:01.237Z,52.13
2019-06-10T09:43:33.367Z,51.95
2019-06-10T09:46:07.613Z,52.50
2019-06-10T09:48:47.078Z,53.71
2019-06-10T09:51:19.555Z,54.68
2019-06-10T09:54:02.132Z,52.73
2019-06-10T09:56:28.578Z,53.55
2019-06-10T09:59:03.106Z,51.97
2019-06-10T10:01:37.961Z,52.09
2019-06-10T10:04:12.263Z,52.48
2019-06-10T10:06:46.673Z,50.71
2019-06-10T10:09:19.875Z,50.22
2019-06-10T10:11:55.910Z,50.90
2019-06-10T10:14:26.933Z,50.33
2019-06-10T10:17:00.748Z,49.37
2019-06-10T10:19:35.418Z,49.69
2019-06-10T10:22:11.642Z,48.94
2019-06-10T10:24:44.616Z,49.45
2019-06-10T10:27:19.021Z,48.91
2019-06-10T10:29:57.063Z,49.73
2019-06-10T10:32:26.738Z,49.26
2019-06-10T10:35:03.698Z,48.67
2019-06-10T10:37:37.195Z,48.74
2019-06-10T10:40:13.456Z,48.08
2019-06-10T10:42:52.221Z,47.33
2019-06-10T10:45:22.937Z,47.05
2019-06-10T10:47:57.784Z,46.56
2019-06-10T10:50:35.359Z,46.74
2019-06-10T10:53:07.430Z,47.00
2019-06-10T10:55:43.680Z,46.84
2019-06-10T10:58:16.315Z,47.04
2019-06-10T11:00:54.421Z,46.84
2019-06-10T11:03:26.130Z,47.45
2019-06-10T11:06:01.255Z,47.66
2019-06-10T11:08:34.129Z,46.96
2019-06-10T11:11:06.091Z,47.01
2019-06-10T11:13:43.366Z,46.52
2019-06-10T11:16:22.368Z,46.51
2019-06-10T11:18:58.118Z,46.69
2019-06-10T11:21:33.130Z,46.71
2019-06-10T11:24:05.466Z,45.58
2019-06-10T11:26:38.319Z,45.26
2019-06-10T11:29:09.941Z,45.67
2019-06-10T11:31:44.313Z,45.52
2019-06-10T11:34:19.929Z,45.50
2019-06-10T11:36:55.054Z,45.74
2019-06-10T11:39:28.882Z,45.58
2019-06-10T11:42:03.646Z,45.13
2019-06-10T11:44:36.076Z,45.61
2019-06-10T11:47:08.719Z,45.68
2019-06-10T11:49:43.274Z,44.68
2019-06-10T11:52:16.951Z,45.50
2019-06-10T11:54:59.212Z,44.04
2019-06-10T11:57:23.247Z,43.45
2019-06-10T11:59:57.779Z,40.51
2019-06-10T12:02:30.133Z,40.51
2019-06-10T12:05:05.853Z,39.14
2019-06-10T12:07:38.913Z,38.11
2019-06-10T12:10:12.842Z,37.42
2019-06-10T12:12:45.899Z,36.73
2019-06-10T12:15:19.965Z,36.98
2019-06-10T12:18:00.857Z,34.61
2019-06-10T12:20:33.247Z,34.48
2019-06-10T12:23:05.813Z,33.81
2019-06-10T12:25:39.861Z,33.51
2019-06-10T12:28:12.895Z,32.49
2019-06-10T12:30:45.454Z,32.10
2019-06-10T12:33:22.210Z,31.01
2019-06-10T12:35:56.548Z,31.77
2019-06-10T12:38:32.493Z,31.67
2019-06-10T12:41:09.562Z,30.98
2019-06-10T12:43:43.240Z,29.77
2019-06-10T12:46:16.944Z,29.43
2019-06-10T12:48:49.390Z,29.84
2019-06-10T12:51:23.792Z,30.48
2019-06-10T12:54:04.762Z,29.69
2019-06-10T12:56:34.900Z,30.09
2019-06-10T12:59:09.987Z,30.74
2019-06-10T13:01:45.046Z,30.37
2019-06-10T13:04:18.971Z,31.11
2019-06-10T13:06:52.785Z,29.58
2019-06-10T13:09:28.534Z,30.03
2019-06-10T13:12:03.995Z,29.85
2019-06-10T13:14:37.402Z,29.74
2019-06-10T13:17:10.210Z,28.19
2019-06-10T13:19:43.458Z,28.23
2019-06-10T13:22:17.123Z,27.55
2019-06-10T13:24:49.785Z,27.29
2019-06-10T13:27:23.732Z,27.19
2019-06-10T13:29:57.884Z,26.75
2019-06-10T13:32:35.616Z,25.65
2019-06-10T13:35:12.531Z,25.17
2019-06-10T13:37:46.970Z,24.26
2019-06-10T13:40:22.685Z,24.13
2019-06-10T13:42:57.610Z,26.19
2019-06-10T13:45:33.092Z,27.97
2019-06-10T13:48:08.369Z,26.74
2019-06-10T13:50:38.727Z,26.91
2019-06-10T13:53:12.645Z,26.46
2019-06-10T13:55:46.713Z,25.21
2019-06-10T13:58:22.811Z,30.24
2019-06-10T14:00:53.797Z,27.51
2019-06-10T14:03:26.563Z,26.33
2019-06-10T14:06:04.999Z,26.04
2019-06-10T14:08:35.333Z,25.65
2019-06-10T14:11:07.817Z,25.43
2019-06-10T14:13:44.254Z,25.48
2019-06-10T14:16:16.856Z,24.25
2019-06-10T14:18:50.270Z,24.08
2019-06-10T14:21:23.781Z,23.90
2019-06-10T14:23:56.958Z,24.40
2019-06-10T14:26:39.986Z,25.21
2019-06-10T14:29:04.144Z,24.16
2019-06-10T14:31:43.631Z,24.29
2019-06-10T14:34:14.019Z,24.48
2019-06-10T14:36:44.034Z,24.27
2019-06-10T14:39:18.050Z,23.40
2019-06-10T14:41:55.221Z,24.23
2019-06-10T14:44:28.881Z,24.78
2019-06-10T14:47:04.510Z,24.41
2019-06-10T14:49:36.505Z,24.25
2019-06-10T14:52:13.869Z,24.17
2019-06-10T14:54:47.956Z,25.42
2019-06-10T14:57:22.695Z,25.62
2019-06-10T14:59:55.350Z,25.47
2019-06-10T15:02:28.611Z,25.67
2019-06-10T15:05:02.778Z,25.68
2019-06-10T15:07:37.339Z,25.59
2019-06-10T15:10:14.500Z,26.39
2019-06-10T15:12:46.137Z,26.74
2019-06-10T15:15:18.128Z,26.81
2019-06-10T15:17:53.332Z,26.51
2019-06-10T15:20:26.572Z,26.52
2019-06-10T15:22:59.979Z,26.78
2019-06-10T15:25:48.696Z,26.83
2019-06-10T15:28:08.095Z,26.99
2019-06-10T15:30:43.144Z,27.15
2019-06-10T15:33:16.974Z,27.22
2019-06-10T15:35:53.304Z,27.27
2019-06-10T15:38:25.227Z,27.19
2019-06-10T15:40:56.975Z,27.24
2019-06-10T15:43:30.209Z,27.61
2019-06-10T15:46:07.051Z,27.41
2019-06-10T15:48:43.487Z,27.31
2019-06-10T15:51:22.487Z,27.27
2019-06-10T15:53:54.286Z,27.39
2019-06-10T15:56:39.845Z,27.52
2019-06-10T15:59:06.268Z,27.33
2019-06-10T16:01:39.979Z,27.50
2019-06-10T16:04:15.993Z,27.69
2019-06-10T16:06:49.756Z,27.78
2019-06-10T16:09:23.450Z,27.68
2019-06-10T16:11:55.386Z,27.66
2019-06-10T16:14:27.330Z,27.88
2019-06-10T16:17:03.104Z,27.80
2019-06-10T16:19:34.990Z,28.50
2019-06-10T16:22:12.382Z,28.39
2019-06-10T16:24:48.333Z,28.64
2019-06-10T16:27:43.208Z,28.66
2019-06-10T16:30:02.574Z,28.77
2019-06-10T16:32:36.834Z,28.47
2019-06-10T16:35:21.490Z,29.26
2019-06-10T16:37:56.841Z,29.08
2019-06-10T16:40:32.390Z,29.35
2019-06-10T16:43:05.009Z,29.94
2019-06-10T16:45:37.809Z,29.50
2019-06-10T16:48:09.942Z,29.84
2019-06-10T16:50:47.113Z,29.93
2019-06-10T16:53:28.458Z,29.69
2019-06-10T16:55:58.618Z,29.52
2019-06-10T16:58:33.190Z,29.34
2019-06-10T17:01:05.624Z,29.07
2019-06-10T17:03:37.950Z,29.18
2019-06-10T17:06:12.927Z,29.36
2019-06-10T17:08:46.385Z,29.67
2019-06-10T17:11:24.187Z,29.93
2019-06-10T17:13:58.260Z,29.67
2019-06-10T17:16:31.509Z,29.83
2019-06-10T17:19:03.988Z,29.75
2019-06-10T17:21:37.209Z,30.23
2019-06-10T17:24:12.892Z,30.44
2019-06-10T17:26:50.134Z,30.56
2019-06-10T17:29:25.928Z,30.99
2019-06-10T17:31:58.854Z,30.96
2019-06-10T17:34:33.929Z,31.33
2019-06-10T17:37:05.934Z,31.32
2019-06-10T17:39:42.752Z,31.30
2019-06-10T17:42:17.411Z,31.63
2019-06-10T17:44:50.059Z,32.02
2019-06-10T17:47:24.548Z,31.94
2019-06-10T17:49:56.845Z,32.23
2019-06-10T17:52:34.152Z,32.40
2019-06-10T17:55:07.545Z,32.64
2019-06-10T17:57:42.985Z,32.90
2019-06-10T18:00:18.579Z,33.13
2019-06-10T18:02:53.557Z,33.58
2019-06-10T18:05:25.544Z,33.92
2019-06-10T18:07:57.675Z,34.33
2019-06-10T18:10:29.866Z,34.75
2019-06-10T18:13:13.287Z,35.17
2019-06-10T18:15:36.878Z,35.73
2019-06-10T18:18:12.988Z,35.97
2019-06-10T18:20:53.299Z,36.49
2019-06-10T18:23:24.933Z,37.25
2019-06-10T18:25:59.037Z,37.38
2019-06-10T18:28:45.350Z,37.98
2019-06-10T18:31:08.682Z,38.07
2019-06-10T18:33:42.454Z,38.99
2019-06-10T18:36:16.402Z,39.95
2019-06-10T18:38:52.661Z,41.30
2019-06-10T18:41:25.125Z,41.54
2019-06-10T18:43:58.889Z,42.74
2019-06-10T18:46:33.251Z,43.38
2019-06-10T18:49:06.054Z,44.56
2019-06-10T18:51:43.200Z,44.54
2019-06-10T18:54:18.028Z,45.27
2019-06-10T18:56:52.544Z,45.93
2019-06-10T18:59:28.091Z,46.51
2019-06-10T19:02:06.230Z,47.08
2019-06-10T19:04:40.196Z,47.87
2019-06-10T19:07:12.216Z,48.41
2019-06-10T19:09:47.944Z,48.92
2019-06-10T19:12:22.453Z,49.45
2019-06-10T19:14:55.908Z,49.38
2019-06-10T19:17:33.139Z,49.57
2019-06-10T19:20:07.983Z,50.01
2019-06-10T19:22:41.107Z,50.34
2019-06-10T19:25:17.130Z,50.61
2019-06-10T19:27:52.977Z,50.59
2019-06-10T19:30:29.286Z,50.79
2019-06-10T19:33:05.208Z,51.49
2019-06-10T19:35:39.673Z,51.93
2019-06-10T19:38:13.464Z,52.02
2019-06-10T19:40:52.277Z,52.40
2019-06-10T19:43:26.381Z,52.77
2019-06-10T19:46:02.974Z,52.77
2019-06-10T19:48:40.187Z,53.27
2019-06-10T19:51:12.223Z,53.28
2019-06-10T19:53:45.355Z,53.59
2019-06-10T19:56:23.250Z,53.53
2019-06-10T19:58:55.305Z,53.78
2019-06-10T20:01:33.850Z,54.16
2019-06-10T20:04:09.705Z,54.74
2019-06-10T20:06:47.872Z,55.54
2019-06-10T20:09:16.562Z,55.43
2019-06-10T20:11:48.296Z,55.73
2019-06-10T20:14:21.934Z,56.12
2019-06-10T20:16:53.576Z,56.43
2019-06-10T20:19:29.337Z,56.84
2019-06-10T20:22:01.295Z,57.30
2019-06-10T20:24:34.010Z,57.79
2019-06-10T20:27:07.368Z,57.67
2019-06-10T20:29:39.947Z,57.85
2019-06-10T20:32:14.052Z,58.35
2019-06-10T20:34:52.688Z,58.38
2019-06-10T20:37:26.135Z,58.43
2019-06-10T20:39:59.550Z,58.68
2019-06-10T20:42:32.380Z,58.81
2019-06-10T20:45:08.407Z,59.21
2019-06-10T20:47:44.629Z,59.51
2019-06-10T20:50:19.806Z,59.87
2019-06-10T20:52:52.968Z,60.07
2019-06-10T20:55:40.115Z,60.39
2019-06-10T20:58:04.197Z,60.33
2019-06-10T21:00:48.054Z,60.74
2019-06-10T21:03:20.172Z,60.99
2019-06-10T21:05:53.598Z,61.30
2019-06-10T21:08:33.156Z,61.33
2019-06-10T21:11:08.970Z,61.62
2019-06-10T21:13:46.036Z,61.72
2019-06-10T21:16:15.261Z,62.46
2019-06-10T21:18:55.111Z,63.33
2019-06-10T21:21:27.061Z,63.73
2019-06-10T21:24:02.261Z,64.10
2019-06-10T21:26:35.670Z,64.10
2019-06-10T21:29:09.794Z,64.31
2019-06-10T21:31:46.769Z,64.47
2019-06-10T21:34:18.872Z,64.65
2019-06-10T21:36:55.999Z,64.78
2019-06-10T21:39:32.210Z,64.85
2019-06-10T21:42:05.246Z,65.50
2019-06-10T21:44:38.047Z,66.02
2019-06-10T21:47:12.823Z,66.30
2019-06-10T21:49:46.916Z,66.85
2019-06-10T21:52:20.058Z,67.10
2019-06-10T21:54:52.798Z,67.34
2019-06-10T21:57:27.231Z,67.51
2019-06-10T22:00:06.661Z,67.70
2019-06-10T22:02:39.175Z,68.04
2019-06-10T22:05:13.613Z,68.14
2019-06-10T22:07:49.599Z,68.29
2019-06-10T22:10:22.912Z,68.55
2019-06-10T22:12:56.075Z,68.91
2019-06-10T22:15:33.265Z,68.88
2019-06-10T22:18:08.426Z,68.50
2019-06-10T22:20:43.015Z,68.77
2019-06-10T22:23:18.328Z,68.91
2019-06-10T22:25:57.736Z,69.00
2019-06-10T22:28:33.508Z,68.91
2019-06-10T22:31:19.110Z,69.26
2019-06-10T22:33:45.278Z,69.28
2019-06-10T22:36:23.004Z,69.19
2019-06-10T22:38:59.276Z,69.12
2019-06-10T22:41:33.224Z,69.22
2019-06-10T22:44:06.919Z,69.19
2019-06-10T22:46:42.543Z,68.92
2019-06-10T22:49:19.391Z,69.25
2019-06-10T22:51:56.549Z,69.32
2019-06-10T22:54:32.102Z,69.62
2019-06-10T22:57:04.487Z,70.05
2019-06-10T22:59:37.798Z,69.73
2019-06-10T23:02:13.183Z,70.07
2019-06-10T23:04:47.036Z,70.40
2019-06-10T23:07:22.898Z,70.88
2019-06-10T23:09:57.500Z,71.94
2019-06-10T23:12:33.337Z,71.93
2019-06-10T23:15:08.225Z,72.05
2019-06-10T23:17:43.832Z,72.08
2019-06-10T23:20:17.452Z,72.36
2019-06-10T23:22:55.282Z,72.36
2019-06-10T23:25:26.478Z,72.45
2019-06-10T23:28:01.445Z,73.26
2019-06-10T23:30:36.753Z,73.48
2019-06-10T23:33:12.208Z,73.82
2019-06-10T23:35:47.554Z,74.23
2019-06-10T23:38:23.629Z,74.53
2019-06-10T23:40:56.927Z,74.80
2019-06-10T23:43:32.992Z,74.80
2019-06-10T23:46:11.984Z,75.02
2019-06-10T23:48:44.383Z,75.46
2019-06-10T23:51:16.651Z,75.32
2019-06-10T23:53:49.535Z,75.17
2019-06-10T23:56:22.182Z,75.21
2019-06-10T23:58:57.494Z,75.11
